createdAt,value
2022-11-29T00:02:32.360Z,101191.25
2022-11-29T00:05:35.095Z,101190.38
2022-11-29T00:08:37.434Z,101186.91
2022-11-29T00:11:58.452Z,101189.59
2022-11-29T00:14:59.986Z,101196.69
2022-11-29T00:18:01.530Z,101187.97
2022-11-29T00:21:09.488Z,101200.22
2022-11-29T00:24:11.032Z,101196.69
2022-11-29T00:27:12.658Z,101200.22
2022-11-29T00:30:14.583Z,101195.09
2022-11-29T00:33:16.115Z,101197.66
2022-11-29T00:36:18.197Z,101191.47
2022-11-29T00:39:19.756Z,101194.94
2022-11-29T00:42:21.302Z,101199.31
2022-11-29T00:45:22.812Z,101197.59
2022-11-29T00:48:24.562Z,101202.03
2022-11-29T00:51:26.266Z,101200.28
2022-11-29T00:54:27.930Z,101201.19
2022-11-29T00:57:29.498Z,101193.34
2022-11-29T01:00:31.045Z,101203.03
2022-11-29T01:03:33.205Z,101197.75
2022-11-29T01:06:34.783Z,101200.38
2022-11-29T01:09:36.326Z,101197.81
2022-11-29T01:12:39.363Z,101196.94
2022-11-29T01:15:41.766Z,101201.41
2022-11-29T01:18:43.994Z,101204.06
2022-11-29T01:21:45.500Z,101206.78
2022-11-29T01:24:47.181Z,101204.13
2022-11-29T01:27:48.754Z,101206.78
2022-11-29T01:30:50.418Z,101207.66
2022-11-29T01:33:56.670Z,101203.34
2022-11-29T01:36:58.194Z,101213.88
2022-11-29T01:39:59.775Z,101219.16
2022-11-29T01:43:01.331Z,101222.59
2022-11-29T01:46:02.902Z,101220.00
2022-11-29T01:49:13.255Z,101215.56
2022-11-29T01:52:19.553Z,101222.66
2022-11-29T01:55:21.437Z,101218.28
2022-11-29T01:58:23.417Z,101220.03
2022-11-29T02:01:26.028Z,101223.59
2022-11-29T02:04:31.795Z,101225.31
2022-11-29T02:07:33.685Z,101225.31
2022-11-29T02:11:27.793Z,101229.72
2022-11-29T02:14:47.971Z,101225.41
2022-11-29T02:18:03.518Z,101223.63
2022-11-29T02:21:17.535Z,101228.91
2022-11-29T02:24:37.486Z,101226.28
2022-11-29T02:27:54.228Z,101228.00
2022-11-29T02:31:33.263Z,101225.38
2022-11-29T02:34:50.752Z,101228.88
2022-11-29T02:38:13.797Z,101230.56
2022-11-29T02:41:38.483Z,101241.09
2022-11-29T02:44:51.832Z,101231.38
2022-11-29T02:48:27.451Z,101238.38
2022-11-29T02:51:40.649Z,101248.03
2022-11-29T02:54:56.526Z,101241.84
2022-11-29T02:58:25.161Z,101247.06
2022-11-29T03:01:40.440Z,101244.44
2022-11-29T03:05:19.950Z,101249.69
2022-11-29T03:08:53.155Z,101249.69
2022-11-29T03:12:10.611Z,101249.69
2022-11-29T03:15:33.387Z,101253.22
2022-11-29T03:18:51.090Z,101254.13
2022-11-29T03:22:06.406Z,101259.47
2022-11-29T03:25:26.571Z,101264.66
2022-11-29T03:29:01.230Z,101267.38
2022-11-29T03:32:28.176Z,101271.75
2022-11-29T03:35:40.777Z,101272.56
2022-11-29T03:38:45.374Z,101283.97
2022-11-29T03:41:55.711Z,101280.44
2022-11-29T03:45:00.241Z,101271.75
2022-11-29T03:48:29.483Z,101276.09
2022-11-29T03:51:45.515Z,101276.09
2022-11-29T03:54:47.163Z,101277.84
2022-11-29T03:58:22.671Z,101281.34
2022-11-29T04:01:47.344Z,101285.81
2022-11-29T04:05:07.598Z,101284.06
2022-11-29T04:08:27.908Z,101283.28
2022-11-29T04:11:35.193Z,101289.41
2022-11-29T04:15:04.464Z,101290.28
2022-11-29T04:18:27.379Z,101289.41
2022-11-29T04:22:04.635Z,101290.38
2022-11-29T04:25:25.053Z,101292.13
2022-11-29T04:28:44.937Z,101307.06
2022-11-29T04:32:11.470Z,101289.56
2022-11-29T04:35:50.583Z,101301.78
2022-11-29T04:39:15.157Z,101314.06
2022-11-29T04:42:27.943Z,101314.06
2022-11-29T04:45:41.220Z,101314.94
2022-11-29T04:49:15.162Z,101324.63
2022-11-29T04:52:25.562Z,101325.41
2022-11-29T04:55:49.367Z,101324.53
2022-11-29T04:58:55.852Z,101328.84
2022-11-29T05:02:12.604Z,101334.09
2022-11-29T05:05:36.603Z,101333.19
2022-11-29T05:08:44.196Z,101336.69
2022-11-29T05:12:19.228Z,101337.53
2022-11-29T05:15:51.013Z,101339.28
2022-11-29T05:19:30.073Z,101336.69
2022-11-29T05:23:03.771Z,101342.81
2022-11-29T05:26:12.727Z,101337.53
2022-11-29T05:29:30.413Z,101353.34
2022-11-29T05:32:54.970Z,101346.31
2022-11-29T05:36:11.315Z,101352.50
2022-11-29T05:39:30.811Z,101363.03
2022-11-29T05:43:06.510Z,101360.44
2022-11-29T05:46:52.571Z,101367.16
2022-11-29T05:50:12.630Z,101363.66
2022-11-29T05:53:22.365Z,101372.44
2022-11-29T05:56:40.377Z,101368.13
2022-11-29T05:59:44.993Z,101374.34
2022-11-29T06:02:58.611Z,101372.59
2022-11-29T06:06:16.987Z,101378.81
2022-11-29T06:09:23.536Z,101386.34
2022-11-29T06:12:26.934Z,101387.47
2022-11-29T06:15:40.953Z,101386.66
2022-11-29T06:19:03.523Z,101396.41
2022-11-29T06:22:23.602Z,101396.56
2022-11-29T06:25:53.422Z,101397.63
2022-11-29T06:29:13.702Z,101396.81
2022-11-29T06:32:21.903Z,101404.88
2022-11-29T06:35:41.017Z,101406.69
2022-11-29T06:38:42.730Z,101413.88
2022-11-29T06:41:44.748Z,101406.06
2022-11-29T06:44:46.876Z,101409.59
2022-11-29T06:48:06.471Z,101421.06
2022-11-29T06:51:51.756Z,101422.91
2022-11-29T06:55:03.343Z,101422.91
2022-11-29T06:58:20.870Z,101434.31
2022-11-29T07:01:26.276Z,101437.00
2022-11-29T07:04:53.408Z,101437.91
2022-11-29T07:08:02.852Z,101438.78
2022-11-29T07:11:04.778Z,101441.47
2022-11-29T07:14:06.760Z,101444.97
2022-11-29T07:17:27.082Z,101450.28
2022-11-29T07:20:42.451Z,101447.69
2022-11-29T07:24:29.425Z,101448.66
2022-11-29T07:27:36.828Z,101451.22
2022-11-29T07:31:28.202Z,101453.88
2022-11-29T07:34:48.765Z,101453.91
2022-11-29T07:38:25.543Z,101460.06
2022-11-29T07:41:38.594Z,101459.25
2022-11-29T07:45:14.480Z,101461.88
2022-11-29T07:48:17.934Z,101458.38
2022-11-29T07:51:19.570Z,101469.78
2022-11-29T07:54:22.230Z,101470.69
2022-11-29T07:57:23.855Z,101467.16
2022-11-29T08:00:25.505Z,101485.59
2022-11-29T08:03:27.079Z,101483.84
2022-11-29T08:06:28.562Z,101492.63
2022-11-29T08:09:30.132Z,101488.16
2022-11-29T08:12:31.801Z,101489.94
2022-11-29T08:15:33.391Z,101496.94
2022-11-29T08:18:36.643Z,101497.00
2022-11-29T08:21:38.263Z,101499.31
2022-11-29T08:24:39.862Z,101502.00
2022-11-29T08:27:41.414Z,101500.38
2022-11-29T08:30:43.207Z,101496.09
2022-11-29T08:33:44.901Z,101497.97
2022-11-29T08:36:46.461Z,101503.25
2022-11-29T08:39:48.116Z,101506.84
2022-11-29T08:42:50.073Z,101506.00
2022-11-29T08:45:52.604Z,101504.28
2022-11-29T08:48:54.215Z,101505.13
2022-11-29T08:52:15.706Z,101512.19
2022-11-29T08:55:18.951Z,101514.81
2022-11-29T08:58:21.558Z,101513.00
2022-11-29T09:01:23.234Z,101511.22
2022-11-29T09:04:25.114Z,101517.28
2022-11-29T09:07:26.779Z,101520.69
2022-11-29T09:10:28.366Z,101520.69
2022-11-29T09:13:29.903Z,101526.88
2022-11-29T09:16:35.570Z,101535.69
2022-11-29T09:19:37.123Z,101532.16
2022-11-29T09:22:38.671Z,101533.91
2022-11-29T09:25:40.228Z,101544.44
2022-11-29T09:28:41.922Z,101550.59
2022-11-29T09:31:46.860Z,101550.59
2022-11-29T09:34:48.643Z,101547.03
2022-11-29T09:37:50.315Z,101546.13
2022-11-29T09:40:56.161Z,101550.53
2022-11-29T09:44:09.282Z,101552.22
2022-11-29T09:47:33.888Z,101544.31
2022-11-29T09:50:47.964Z,101555.53
2022-11-29T09:54:05.494Z,101558.22
2022-11-29T09:57:10.578Z,101557.34
2022-11-29T10:00:18.109Z,101553.97
2022-11-29T10:03:32.402Z,101556.69
2022-11-29T10:06:40.804Z,101558.50
2022-11-29T10:09:47.888Z,101558.59
2022-11-29T10:12:54.457Z,101555.16
2022-11-29T10:16:11.628Z,101554.28
2022-11-29T10:19:22.453Z,101556.97
2022-11-29T10:22:53.577Z,101555.16
2022-11-29T10:25:57.452Z,101549.91
2022-11-29T10:28:59.628Z,101547.31
2022-11-29T10:32:10.028Z,101546.44
2022-11-29T10:35:18.100Z,101541.25
2022-11-29T10:38:30.659Z,101550.03
2022-11-29T10:41:33.650Z,101556.13
2022-11-29T10:44:35.231Z,101559.63
2022-11-29T10:47:36.831Z,101557.00
2022-11-29T10:50:42.714Z,101556.13
2022-11-29T10:53:44.922Z,101557.81
2022-11-29T10:56:48.055Z,101554.28
2022-11-29T11:00:06.993Z,101556.84
2022-11-29T11:03:42.344Z,101550.69
2022-11-29T11:06:51.577Z,101550.75
2022-11-29T11:09:56.675Z,101554.22
2022-11-29T11:13:04.223Z,101553.31
2022-11-29T11:16:20.593Z,101558.50
2022-11-29T11:19:29.922Z,101554.13
2022-11-29T11:22:33.163Z,101554.13
2022-11-29T11:25:39.731Z,101552.31
2022-11-29T11:28:49.652Z,101554.94
2022-11-29T11:31:54.971Z,101559.28
2022-11-29T11:35:01.383Z,101553.03
2022-11-29T11:38:03.136Z,101567.91
2022-11-29T11:41:18.617Z,101565.25
2022-11-29T11:44:49.626Z,101565.19
2022-11-29T11:47:53.791Z,101570.47
2022-11-29T11:50:59.375Z,101572.22
2022-11-29T11:54:00.977Z,101567.88
2022-11-29T11:57:03.393Z,101573.16
2022-11-29T12:00:07.387Z,101574.88
2022-11-29T12:03:26.716Z,101568.69
2022-11-29T12:06:57.308Z,101573.97
2022-11-29T12:10:05.003Z,101576.59
2022-11-29T12:13:15.035Z,101580.94
2022-11-29T12:16:27.603Z,101577.41
2022-11-29T12:19:37.480Z,101580.94
2022-11-29T12:22:56.405Z,101583.56
2022-11-29T12:26:13.755Z,101582.63
2022-11-29T12:29:22.930Z,101584.31
2022-11-29T12:32:42.277Z,101582.94
2022-11-29T12:35:52.634Z,101589.06
2022-11-29T12:39:12.803Z,101593.59
2022-11-29T12:42:17.255Z,101589.28
2022-11-29T12:45:36.096Z,101590.94
2022-11-29T12:48:40.535Z,101596.53
2022-11-29T12:51:54.222Z,101600.66
2022-11-29T12:55:12.930Z,101598.28
2022-11-29T12:58:26.944Z,101603.09
2022-11-29T13:01:48.340Z,101602.53
2022-11-29T13:05:18.948Z,101600.13
2022-11-29T13:08:20.448Z,101610.06
2022-11-29T13:11:37.776Z,101611.94
2022-11-29T13:14:54.843Z,101611.16
2022-11-29T13:18:11.419Z,101617.47
2022-11-29T13:21:55.058Z,101611.47
2022-11-29T13:25:02.639Z,101609.81
2022-11-29T13:28:25.601Z,101618.66
2022-11-29T13:31:27.530Z,101623.09
2022-11-29T13:34:47.438Z,101619.47
2022-11-29T13:38:19.768Z,101620.03
2022-11-29T13:41:32.252Z,101617.47
2022-11-29T13:44:45.000Z,101618.44
2022-11-29T13:47:55.585Z,101622.09
2022-11-29T13:50:57.918Z,101626.56
2022-11-29T13:54:24.905Z,101624.88
2022-11-29T13:57:26.480Z,101618.78
2022-11-29T14:00:31.024Z,101620.59
2022-11-29T14:03:38.402Z,101626.81
2022-11-29T14:06:40.864Z,101629.47
2022-11-29T14:09:51.100Z,101639.31
2022-11-29T14:12:56.730Z,101629.91
2022-11-29T14:16:02.521Z,101641.94
2022-11-29T14:19:20.230Z,101639.53
2022-11-29T14:22:22.371Z,101641.47
2022-11-29T14:25:50.655Z,101647.28
2022-11-29T14:28:47.515Z,101648.25
2022-11-29T14:31:53.744Z,101656.81
2022-11-29T14:35:08.128Z,101660.00
2022-11-29T14:38:29.235Z,101651.78
2022-11-29T14:41:50.986Z,101657.72
2022-11-29T14:44:56.117Z,101655.50
2022-11-29T14:47:58.204Z,101662.06
2022-11-29T14:51:12.728Z,101665.09
2022-11-29T14:54:20.015Z,101655.75
2022-11-29T14:57:59.344Z,101658.72
2022-11-29T15:01:09.627Z,101654.63
2022-11-29T15:04:12.777Z,101663.59
2022-11-29T15:07:19.927Z,101663.81
2022-11-29T15:10:28.044Z,101668.31
2022-11-29T15:13:35.467Z,101657.88
2022-11-29T15:17:00.893Z,101659.81
2022-11-29T15:20:24.881Z,101662.59
2022-11-29T15:23:26.508Z,101668.91
2022-11-29T15:26:28.419Z,101672.59
2022-11-29T15:29:31.487Z,101677.09
2022-11-29T15:32:33.216Z,101681.63
2022-11-29T15:35:36.338Z,101687.84
2022-11-29T15:38:49.000Z,101686.22
2022-11-29T15:41:50.661Z,101688.09
2022-11-29T15:44:53.162Z,101691.69
2022-11-29T15:47:55.516Z,101697.00
2022-11-29T15:51:15.804Z,101696.19
2022-11-29T15:54:29.688Z,101703.28
2022-11-29T15:57:42.864Z,101695.44
2022-11-29T16:00:49.716Z,101703.41
2022-11-29T16:03:54.630Z,101708.72
2022-11-29T16:06:57.604Z,101713.91
2022-11-29T16:10:04.714Z,101711.09
2022-11-29T16:13:32.391Z,101703.22
2022-11-29T16:16:35.579Z,101712.13
2022-11-29T16:19:39.243Z,101708.69
2022-11-29T16:22:40.860Z,101711.38
2022-11-29T16:26:19.057Z,101722.88
2022-11-29T16:29:27.214Z,101726.41
2022-11-29T16:32:33.757Z,101722.88
2022-11-29T16:35:36.644Z,101728.22
2022-11-29T16:38:49.099Z,101727.28
2022-11-29T16:42:06.493Z,101720.31
2022-11-29T16:45:31.130Z,101732.63
2022-11-29T16:48:38.358Z,101729.16
2022-11-29T16:51:48.222Z,101722.97
2022-11-29T16:54:51.002Z,101729.09
2022-11-29T16:57:52.636Z,101731.72
2022-11-29T17:00:54.284Z,101732.66
2022-11-29T17:03:58.070Z,101732.69
2022-11-29T17:06:59.728Z,101744.16
2022-11-29T17:10:01.821Z,101736.25
2022-11-29T17:13:04.563Z,101748.59
2022-11-29T17:16:11.716Z,101751.22
2022-11-29T17:19:13.576Z,101749.50
2022-11-29T17:22:15.199Z,101752.16
2022-11-29T17:25:16.811Z,101753.09
2022-11-29T17:28:18.339Z,101762.75
2022-11-29T17:31:24.084Z,101757.53
2022-11-29T17:34:25.889Z,101763.75
2022-11-29T17:37:29.943Z,101763.75
2022-11-29T17:40:31.538Z,101764.66
2022-11-29T17:43:34.775Z,101769.03
2022-11-29T17:46:37.088Z,101770.78
2022-11-29T17:49:38.689Z,101769.94
2022-11-29T17:52:41.176Z,101771.66
2022-11-29T17:55:42.727Z,101771.66
2022-11-29T17:58:45.163Z,101776.00
2022-11-29T18:01:49.951Z,101776.94
2022-11-29T18:04:51.617Z,101774.31
2022-11-29T18:07:58.897Z,101770.78
2022-11-29T18:11:24.850Z,101774.31
2022-11-29T18:14:29.066Z,101781.34
2022-11-29T18:17:30.738Z,101784.00
2022-11-29T18:20:33.214Z,101785.75
2022-11-29T18:23:37.383Z,101797.16
2022-11-29T18:26:39.658Z,101789.25
2022-11-29T18:29:41.418Z,101803.31
2022-11-29T18:32:43.068Z,101802.44
2022-11-29T18:35:44.654Z,101805.94
2022-11-29T18:38:47.401Z,101812.97
2022-11-29T18:41:49.916Z,101816.47
2022-11-29T18:44:53.609Z,101812.97
2022-11-29T18:47:59.003Z,101813.84
2022-11-29T18:51:08.948Z,101810.28
2022-11-29T18:54:10.654Z,101817.31
2022-11-29T18:57:12.167Z,101814.75
2022-11-29T19:00:14.170Z,101819.13
2022-11-29T19:03:15.713Z,101821.78
2022-11-29T19:06:22.499Z,101824.47
2022-11-29T19:09:24.362Z,101835.88
2022-11-29T19:12:26.113Z,101830.63
2022-11-29T19:15:27.663Z,101835.03
2022-11-29T19:18:29.263Z,101842.03
2022-11-29T19:21:32.356Z,101843.81
2022-11-29T19:24:33.905Z,101844.72
2022-11-29T19:27:35.452Z,101845.63
2022-11-29T19:30:37.146Z,101852.69
2022-11-29T19:33:41.140Z,101850.94
2022-11-29T19:36:44.230Z,101843.03
2022-11-29T19:39:46.403Z,101848.31
2022-11-29T19:42:49.571Z,101849.25
2022-11-29T19:45:51.165Z,101846.63
2022-11-29T19:48:54.311Z,101852.81
2022-11-29T19:51:55.911Z,101852.81
2022-11-29T19:54:58.139Z,101853.75
2022-11-29T19:57:59.750Z,101857.25
2022-11-29T20:01:09.121Z,101858.16
2022-11-29T20:04:12.796Z,101859.03
2022-11-29T20:07:14.402Z,101857.28
2022-11-29T20:10:16.012Z,101867.00
2022-11-29T20:13:18.196Z,101859.09
2022-11-29T20:16:20.104Z,101871.41
2022-11-29T20:19:21.723Z,101869.69
2022-11-29T20:22:23.235Z,101872.31
2022-11-29T20:25:25.282Z,101877.59
2022-11-29T20:28:27.215Z,101869.59
2022-11-29T20:31:30.159Z,101868.66
2022-11-29T20:34:31.942Z,101877.34
2022-11-29T20:37:55.364Z,101870.22
2022-11-29T20:41:05.009Z,101882.53
2022-11-29T20:44:06.680Z,101884.28
2022-11-29T20:47:13.786Z,101881.63
2022-11-29T20:50:23.453Z,101884.16
2022-11-29T20:53:36.061Z,101884.97
2022-11-29T20:56:37.577Z,101891.06
2022-11-29T20:59:39.130Z,101886.66
2022-11-29T21:02:40.693Z,101888.44
2022-11-29T21:05:42.388Z,101891.94
2022-11-29T21:08:43.906Z,101893.72
2022-11-29T21:11:45.814Z,101895.47
2022-11-29T21:14:48.003Z,101898.03
2022-11-29T21:17:50.157Z,101893.69
2022-11-29T21:21:17.896Z,101898.09
2022-11-29T21:24:48.820Z,101900.78
2022-11-29T21:27:52.300Z,101899.91
2022-11-29T21:30:54.243Z,101893.81
2022-11-29T21:33:56.156Z,101893.88
2022-11-29T21:37:00.900Z,101898.28
2022-11-29T21:40:02.469Z,101900.09
2022-11-29T21:43:03.979Z,101904.47
2022-11-29T21:46:05.892Z,101904.50
2022-11-29T21:49:07.568Z,101908.06
2022-11-29T21:52:09.365Z,101903.66
2022-11-29T21:55:11.210Z,101903.66
2022-11-29T21:58:12.710Z,101914.22
2022-11-29T22:01:19.635Z,101907.19
2022-11-29T22:04:21.275Z,101914.22
2022-11-29T22:07:22.888Z,101911.63
2022-11-29T22:10:24.448Z,101909.88
2022-11-29T22:13:25.970Z,101914.22
2022-11-29T22:16:28.347Z,101917.78
2022-11-29T22:19:34.844Z,101923.94
2022-11-29T22:22:36.404Z,101922.22
2022-11-29T22:25:37.972Z,101923.09
2022-11-29T22:28:39.567Z,101922.22
2022-11-29T22:31:42.567Z,101928.38
2022-11-29T22:34:44.391Z,101928.44
2022-11-29T22:37:46.281Z,101924.94
2022-11-29T22:40:47.884Z,101917.91
2022-11-29T22:43:49.654Z,101918.59
2022-11-29T22:46:51.719Z,101926.97
2022-11-29T22:49:53.280Z,101934.88
2022-11-29T22:52:54.815Z,101931.44
2022-11-29T22:56:04.507Z,101936.75
2022-11-29T22:59:06.782Z,101939.44
2022-11-29T23:02:08.332Z,101936.81
2022-11-29T23:05:09.895Z,101943.03
2022-11-29T23:08:11.455Z,101940.44
2022-11-29T23:11:21.309Z,101950.13
2022-11-29T23:14:24.000Z,101946.66
2022-11-29T23:17:25.573Z,101948.91
2022-11-29T23:20:27.117Z,101950.66
2022-11-29T23:23:28.828Z,101948.03
2022-11-29T23:26:40.159Z,101959.50
2022-11-29T23:29:41.737Z,101961.38
2022-11-29T23:32:43.243Z,101957.03
2022-11-29T23:35:44.830Z,101965.00
2022-11-29T23:38:46.690Z,101963.25
2022-11-29T23:41:48.343Z,101963.34
2022-11-29T23:44:49.867Z,101966.91
2022-11-29T23:47:51.698Z,101967.84
2022-11-29T23:50:53.314Z,101963.50
2022-11-29T23:53:55.408Z,101974.06
2022-11-29T23:56:57.001Z,101972.34
2022-11-29T23:59:58.701Z,101971.53
